createdAt,value
2018-06-18T00:02:49.992Z,18.90
2018-06-18T00:07:49.290Z,19.00
2018-06-18T00:10:23.719Z,19.00
2018-06-18T00:15:26.702Z,18.90
2018-06-18T00:17:56.817Z,19.00
2018-06-18T00:20:31.299Z,18.90
2018-06-18T00:25:41.051Z,18.90
2018-06-18T00:28:13.198Z,18.80
2018-06-18T00:33:27.020Z,18.80
2018-06-18T00:41:04.349Z,18.80
2018-06-18T00:43:35.585Z,18.80
2018-06-18T00:48:45.889Z,18.80
2018-06-18T00:51:18.609Z,18.80
2018-06-18T01:08:51.863Z,18.70
2018-06-18T01:11:20.517Z,18.70
2018-06-18T01:13:56.506Z,18.70
2018-06-18T01:16:30.506Z,18.70
2018-06-18T01:21:32.233Z,18.60
2018-06-18T01:24:10.387Z,18.60
2018-06-18T01:26:38.645Z,18.60
2018-06-18T01:34:06.128Z,18.70
2018-06-18T01:36:39.077Z,18.70
2018-06-18T01:39:13.252Z,18.70
2018-06-18T01:41:48.480Z,18.70
2018-06-18T01:44:21.058Z,18.70
2018-06-18T01:46:53.661Z,18.70
2018-06-18T01:49:23.427Z,18.80
2018-06-18T01:54:24.715Z,18.70
2018-06-18T01:56:57.297Z,21.30
2018-06-18T01:59:27.989Z,18.70
2018-06-18T02:02:03.766Z,18.70
2018-06-18T02:04:37.284Z,18.70
2018-06-18T02:07:07.623Z,18.70
2018-06-18T02:12:13.938Z,18.70
2018-06-18T02:14:46.337Z,18.70
2018-06-18T02:17:19.009Z,18.70
2018-06-18T02:22:17.796Z,18.60
2018-06-18T02:24:46.535Z,18.60
2018-06-18T02:29:54.338Z,18.60
2018-06-18T02:32:31.142Z,18.50
2018-06-18T02:40:15.604Z,18.40
2018-06-18T02:42:46.075Z,18.40
2018-06-18T02:47:48.846Z,18.30
2018-06-18T02:52:46.860Z,18.30
2018-06-18T02:55:16.045Z,18.30
2018-06-18T03:00:29.385Z,18.30
2018-06-18T03:03:05.071Z,18.30
2018-06-18T03:05:42.980Z,18.30
2018-06-18T03:08:12.106Z,18.30
2018-06-18T03:10:41.660Z,18.30
2018-06-18T03:13:13.010Z,18.30
2018-06-18T03:18:18.100Z,18.20
2018-06-18T03:20:52.217Z,18.20
2018-06-18T03:23:27.277Z,18.20
2018-06-18T03:26:01.474Z,18.30
2018-06-18T03:31:06.059Z,18.40
2018-06-18T03:33:34.316Z,18.40
2018-06-18T03:36:02.552Z,18.40
2018-06-18T03:38:30.733Z,18.40
2018-06-18T03:40:58.921Z,18.40
2018-06-18T03:43:27.165Z,18.30
2018-06-18T03:45:55.356Z,18.30
2018-06-18T03:48:23.561Z,18.30
2018-06-18T03:53:19.721Z,18.30
2018-06-18T03:55:52.257Z,18.30
2018-06-18T03:58:20.460Z,18.30
2018-06-18T04:04:05.758Z,18.20
2018-06-18T04:06:39.413Z,18.40
2018-06-18T04:09:13.205Z,18.40
2018-06-18T04:11:47.127Z,18.40
2018-06-18T04:14:15.725Z,18.40
2018-06-18T04:16:43.931Z,18.50
2018-06-18T04:19:12.125Z,18.50
2018-06-18T04:21:40.363Z,18.50
2018-06-18T04:24:08.559Z,18.50
2018-06-18T04:26:36.820Z,18.50
2018-06-18T04:29:04.991Z,18.50
2018-06-18T04:31:33.187Z,18.50
2018-06-18T04:34:11.625Z,18.50
2018-06-18T04:36:39.819Z,18.60
2018-06-18T04:39:08.953Z,18.60
2018-06-18T04:44:14.656Z,18.50
2018-06-18T04:46:48.345Z,18.50
2018-06-18T04:49:21.920Z,18.50
2018-06-18T04:51:50.129Z,18.50
2018-06-18T04:54:18.319Z,18.50
2018-06-18T04:56:46.520Z,18.40
2018-06-18T04:59:14.690Z,18.50
2018-06-18T05:01:42.893Z,18.50
2018-06-18T05:04:11.086Z,18.50
2018-06-18T05:06:39.272Z,18.40
2018-06-18T05:09:13.733Z,18.50
2018-06-18T05:11:41.921Z,18.40
2018-06-18T05:14:10.099Z,18.50
2018-06-18T05:16:38.314Z,18.40
2018-06-18T05:19:06.624Z,18.50
2018-06-18T05:21:34.869Z,18.50
2018-06-18T05:24:03.159Z,18.50
2018-06-18T05:26:32.166Z,18.50
2018-06-18T05:29:00.346Z,18.60
2018-06-18T05:31:28.539Z,18.60
2018-06-18T05:33:56.709Z,18.50
2018-06-18T05:38:52.828Z,18.50
2018-06-18T05:41:21.048Z,18.60
2018-06-18T05:43:49.250Z,18.60
2018-06-18T05:46:17.426Z,18.70
2018-06-18T05:48:45.607Z,18.70
2018-06-18T05:51:13.803Z,18.80
2018-06-18T05:53:42.006Z,18.80
2018-06-18T05:56:10.193Z,18.80
2018-06-18T05:58:38.389Z,18.80
2018-06-18T06:01:06.590Z,18.80
2018-06-18T06:03:34.779Z,18.90
2018-06-18T06:06:02.998Z,19.00
2018-06-18T06:08:31.182Z,19.00
2018-06-18T06:10:59.385Z,19.10
2018-06-18T06:13:27.588Z,19.10
2018-06-18T06:15:55.767Z,19.10
2018-06-18T06:18:23.951Z,19.10
2018-06-18T06:20:55.165Z,19.20
2018-06-18T06:23:23.355Z,19.20
2018-06-18T06:25:51.611Z,19.10
2018-06-18T06:28:19.810Z,19.20
2018-06-18T06:30:47.991Z,19.30
2018-06-18T06:33:16.211Z,19.30
2018-06-18T06:35:45.252Z,19.40
2018-06-18T06:40:41.630Z,19.20
2018-06-18T06:43:10.396Z,19.30
2018-06-18T06:48:06.532Z,19.70
2018-06-18T06:53:02.670Z,19.80
2018-06-18T06:55:30.872Z,20.00
2018-06-18T06:57:59.089Z,20.10
2018-06-18T07:00:27.274Z,20.20
2018-06-18T07:02:55.460Z,20.20
2018-06-18T07:07:51.615Z,20.40
2018-06-18T07:12:47.785Z,20.30
2018-06-18T07:15:16.329Z,20.30
2018-06-18T07:20:12.645Z,20.00
2018-06-18T07:22:40.845Z,20.00
2018-06-18T07:25:09.036Z,20.00
2018-06-18T07:30:05.975Z,20.00
2018-06-18T07:32:34.181Z,19.90
2018-06-18T07:39:58.274Z,19.90
2018-06-18T07:44:54.498Z,19.80
2018-06-18T07:47:22.640Z,19.80
2018-06-18T07:49:50.832Z,19.80
2018-06-18T07:52:19.277Z,19.80
2018-06-18T07:54:47.484Z,19.90
2018-06-18T07:57:15.903Z,20.00
2018-06-18T07:59:44.099Z,20.00
2018-06-18T08:02:12.559Z,20.10
2018-06-18T08:04:40.764Z,20.20
2018-06-18T08:07:08.955Z,20.30
2018-06-18T08:09:37.259Z,20.50
2018-06-18T08:12:05.413Z,20.60
2018-06-18T08:14:33.615Z,20.70
2018-06-18T08:17:01.810Z,20.90
2018-06-18T08:19:29.995Z,21.10
2018-06-18T08:21:58.211Z,21.20
2018-06-18T08:24:26.425Z,21.30
2018-06-18T08:26:54.661Z,21.40
2018-06-18T08:29:22.824Z,21.40
2018-06-18T08:31:51.020Z,21.50
2018-06-18T08:34:19.277Z,21.50
2018-06-18T08:36:47.461Z,21.50
2018-06-18T08:39:15.680Z,21.50
2018-06-18T08:46:39.792Z,21.60
2018-06-18T08:49:08.987Z,21.70
2018-06-18T08:54:16.033Z,22.10
2018-06-18T08:56:49.808Z,22.10
2018-06-18T08:59:23.344Z,22.20
2018-06-18T09:01:51.607Z,22.20
2018-06-18T09:04:25.184Z,22.20
2018-06-18T09:06:57.611Z,22.20
2018-06-18T09:09:25.852Z,22.20
2018-06-18T09:11:54.040Z,22.40
2018-06-18T09:14:22.287Z,22.60
2018-06-18T09:16:50.475Z,22.70
2018-06-18T09:19:18.656Z,22.70
2018-06-18T09:21:46.847Z,22.60
2018-06-18T09:24:15.040Z,22.60
2018-06-18T09:29:11.256Z,22.70
2018-06-18T09:31:43.689Z,22.70
2018-06-18T09:34:11.892Z,22.70
2018-06-18T09:36:40.102Z,22.70
2018-06-18T09:39:08.312Z,22.60
2018-06-18T09:41:36.524Z,22.70
2018-06-18T09:44:04.744Z,22.70
2018-06-18T09:51:12.640Z,22.70
2018-06-18T09:53:46.406Z,22.70
2018-06-18T09:56:19.783Z,22.50
2018-06-18T09:58:53.428Z,22.40
2018-06-18T10:01:26.986Z,22.50
2018-06-18T10:03:55.166Z,22.50
2018-06-18T10:06:24.514Z,22.60
2018-06-18T10:08:52.707Z,22.70
2018-06-18T10:11:20.917Z,22.70
2018-06-18T10:13:49.101Z,22.80
2018-06-18T10:16:17.315Z,22.80
2018-06-18T10:18:45.525Z,22.80
2018-06-18T10:23:41.643Z,22.90
2018-06-18T10:26:09.838Z,22.90
2018-06-18T10:28:38.043Z,22.70
2018-06-18T10:31:06.259Z,22.50
2018-06-18T10:33:39.912Z,22.70
2018-06-18T10:36:13.531Z,22.80
2018-06-18T10:38:46.908Z,22.70
2018-06-18T10:41:20.527Z,22.80
2018-06-18T10:43:48.738Z,23.00
2018-06-18T10:46:16.929Z,23.10
2018-06-18T10:51:13.231Z,23.00
2018-06-18T10:53:41.446Z,23.10
2018-06-18T10:58:37.587Z,22.90
2018-06-18T11:01:09.734Z,23.10
2018-06-18T11:03:37.894Z,23.30
2018-06-18T11:06:11.429Z,23.40
2018-06-18T11:08:39.614Z,23.60
2018-06-18T11:11:07.805Z,23.60
2018-06-18T11:13:35.994Z,23.70
2018-06-18T11:16:05.273Z,23.80
2018-06-18T11:18:38.826Z,23.90
2018-06-18T11:22:09.923Z,23.90
2018-06-18T11:24:43.580Z,23.90
2018-06-18T11:27:12.542Z,23.80
2018-06-18T11:32:09.442Z,23.80
2018-06-18T11:34:37.635Z,23.80
2018-06-18T11:37:05.832Z,23.90
2018-06-18T11:39:34.037Z,23.90
2018-06-18T11:42:02.324Z,23.90
2018-06-18T11:46:58.412Z,23.90
2018-06-18T11:49:26.592Z,23.50
2018-06-18T11:51:54.808Z,24.10
2018-06-18T11:54:23.021Z,24.20
2018-06-18T11:56:51.182Z,24.10
2018-06-18T12:02:55.809Z,24.20
2018-06-18T12:05:29.555Z,24.20
2018-06-18T12:08:03.047Z,24.20
2018-06-18T12:10:31.245Z,24.30
2018-06-18T12:12:59.446Z,24.40
2018-06-18T12:15:27.642Z,24.50
2018-06-18T12:17:55.846Z,24.50
2018-06-18T12:20:24.048Z,24.60
2018-06-18T12:22:52.261Z,24.60
2018-06-18T12:25:20.456Z,24.60
2018-06-18T12:30:16.600Z,24.70
2018-06-18T12:32:44.792Z,24.80
2018-06-18T12:35:13.804Z,24.80
2018-06-18T12:37:42.011Z,24.90
2018-06-18T12:42:38.167Z,24.90
2018-06-18T12:46:11.974Z,24.90
2018-06-18T12:48:45.373Z,24.90
2018-06-18T12:51:19.043Z,24.90
2018-06-18T12:53:52.727Z,24.90
2018-06-18T12:56:26.323Z,24.80
2018-06-18T12:58:54.606Z,24.70
2018-06-18T13:01:24.778Z,25.00
2018-06-18T13:03:52.971Z,24.90
2018-06-18T13:06:21.179Z,24.90
2018-06-18T13:08:49.377Z,25.10
2018-06-18T13:11:17.577Z,25.10
2018-06-18T13:13:45.762Z,25.10
2018-06-18T13:16:13.963Z,25.10
2018-06-18T13:18:42.177Z,25.20
2018-06-18T13:21:10.374Z,24.90
2018-06-18T13:23:38.573Z,25.20
2018-06-18T13:26:06.757Z,25.20
2018-06-18T13:28:34.972Z,25.10
2018-06-18T13:31:03.154Z,25.10
2018-06-18T13:33:32.268Z,25.00
2018-06-18T13:36:00.444Z,25.00
2018-06-18T13:41:07.659Z,25.10
2018-06-18T13:46:14.827Z,25.10
2018-06-18T13:48:46.384Z,25.10
2018-06-18T13:51:14.572Z,25.10
2018-06-18T13:53:42.774Z,25.20
2018-06-18T13:56:10.990Z,25.10
2018-06-18T13:58:39.288Z,25.10
2018-06-18T14:01:08.680Z,25.00
2018-06-18T14:03:36.886Z,25.00
2018-06-18T14:06:05.095Z,25.00
2018-06-18T14:08:33.292Z,25.00
2018-06-18T14:11:01.558Z,25.00
2018-06-18T14:13:29.802Z,24.90
2018-06-18T14:15:57.972Z,24.70
2018-06-18T14:18:26.164Z,24.80
2018-06-18T14:20:54.359Z,24.70
2018-06-18T14:23:22.549Z,24.40
2018-06-18T14:25:50.763Z,24.50
2018-06-18T14:28:18.953Z,24.60
2018-06-18T14:30:52.500Z,24.60
2018-06-18T14:33:26.133Z,24.70
2018-06-18T14:39:31.998Z,24.70
2018-06-18T14:44:28.109Z,24.50
2018-06-18T14:46:56.329Z,24.50
2018-06-18T14:49:24.515Z,24.50
2018-06-18T14:51:52.721Z,24.50
2018-06-18T14:54:20.982Z,24.60
2018-06-18T14:56:50.449Z,24.60
2018-06-18T14:59:22.636Z,24.50
2018-06-18T15:01:50.838Z,24.40
2018-06-18T15:04:18.979Z,24.50
2018-06-18T15:06:47.182Z,24.50
2018-06-18T15:09:15.393Z,24.40
2018-06-18T15:11:43.891Z,24.20
2018-06-18T15:14:12.098Z,24.10
2018-06-18T15:16:40.296Z,24.00
2018-06-18T15:19:08.535Z,24.00
2018-06-18T15:21:39.743Z,24.00
2018-06-18T15:24:11.010Z,24.10
2018-06-18T15:26:39.240Z,24.20
2018-06-18T15:29:07.427Z,24.30
2018-06-18T15:31:35.721Z,24.30
2018-06-18T15:34:03.917Z,24.40
2018-06-18T15:36:32.138Z,24.50
2018-06-18T15:39:00.328Z,24.50
2018-06-18T15:41:28.503Z,24.40
2018-06-18T15:43:57.037Z,24.40
2018-06-18T15:46:25.127Z,24.40
2018-06-18T15:48:53.328Z,24.50
2018-06-18T15:51:21.525Z,24.40
2018-06-18T15:56:23.304Z,24.20
2018-06-18T15:58:51.479Z,24.20
2018-06-18T16:01:19.684Z,24.30
2018-06-18T16:03:47.863Z,24.50
2018-06-18T16:06:16.042Z,24.50
2018-06-18T16:08:44.228Z,24.60
2018-06-18T16:11:12.439Z,24.30
2018-06-18T16:16:08.609Z,24.30
2018-06-18T16:18:36.791Z,24.30
2018-06-18T16:21:05.004Z,24.40
2018-06-18T16:23:33.221Z,24.40
2018-06-18T16:26:01.401Z,24.20
2018-06-18T16:28:29.601Z,24.20
2018-06-18T16:30:57.804Z,24.30
2018-06-18T16:33:26.004Z,24.30
2018-06-18T16:35:54.211Z,24.30
2018-06-18T16:38:22.399Z,24.20
2018-06-18T16:40:50.586Z,24.20
2018-06-18T16:43:18.782Z,24.20
2018-06-18T16:45:46.981Z,24.20
2018-06-18T16:48:15.213Z,24.10
2018-06-18T16:50:43.407Z,24.10
2018-06-18T16:53:11.615Z,24.20
2018-06-18T16:55:39.824Z,24.20
2018-06-18T16:58:08.022Z,24.20
2018-06-18T17:00:36.284Z,24.20
2018-06-18T17:03:04.435Z,24.20
2018-06-18T17:05:32.616Z,24.20
2018-06-18T17:08:00.795Z,24.20
2018-06-18T17:10:29.345Z,24.20
2018-06-18T17:12:57.544Z,24.40
2018-06-18T17:15:25.755Z,24.30
2018-06-18T17:17:53.976Z,24.40
2018-06-18T17:20:22.176Z,24.40
2018-06-18T17:22:51.108Z,24.30
2018-06-18T17:25:19.493Z,24.20
2018-06-18T17:30:15.647Z,24.30
2018-06-18T17:32:43.844Z,24.20
2018-06-18T17:35:12.044Z,24.10
2018-06-18T17:37:40.270Z,24.00
2018-06-18T17:40:08.493Z,24.00
2018-06-18T17:42:36.699Z,24.00
2018-06-18T17:47:32.838Z,23.90
2018-06-18T17:54:57.040Z,24.10
2018-06-18T17:57:25.238Z,24.00
2018-06-18T18:02:21.363Z,24.00
2018-06-18T18:04:49.577Z,24.00
2018-06-18T18:07:17.767Z,24.00
2018-06-18T18:09:45.983Z,23.90
2018-06-18T18:12:14.173Z,23.90
2018-06-18T18:14:42.378Z,24.30
2018-06-18T18:17:10.576Z,23.70
2018-06-18T18:19:38.809Z,23.70
2018-06-18T18:22:06.985Z,23.70
2018-06-18T18:24:35.186Z,23.80
2018-06-18T18:27:03.395Z,23.90
2018-06-18T18:29:31.595Z,23.80
2018-06-18T18:31:59.796Z,23.80
2018-06-18T18:34:27.994Z,23.70
2018-06-18T18:36:56.219Z,23.70
2018-06-18T18:39:24.487Z,23.60
2018-06-18T18:41:52.626Z,23.60
2018-06-18T18:44:20.814Z,23.50
2018-06-18T18:46:49.184Z,23.50
2018-06-18T18:49:17.417Z,23.40
2018-06-18T18:51:46.055Z,23.40
2018-06-18T18:55:28.616Z,23.30
2018-06-18T18:58:08.299Z,23.30
2018-06-18T19:00:36.511Z,23.00
2018-06-18T19:03:04.739Z,22.90
2018-06-18T19:05:36.004Z,23.00
2018-06-18T19:08:04.203Z,22.90
2018-06-18T19:10:34.302Z,22.70
2018-06-18T19:13:04.779Z,22.90
2018-06-18T19:15:32.967Z,22.30
2018-06-18T19:18:01.186Z,22.40
2018-06-18T19:20:34.874Z,22.40
2018-06-18T19:23:03.292Z,22.40
2018-06-18T19:27:59.986Z,22.20
2018-06-18T19:30:28.910Z,22.10
2018-06-18T19:35:27.165Z,22.10
2018-06-18T19:37:55.640Z,22.00
2018-06-18T19:40:24.079Z,21.90
2018-06-18T19:42:52.627Z,21.80
2018-06-18T19:45:23.089Z,21.70
2018-06-18T19:47:55.036Z,21.50
2018-06-18T19:52:51.708Z,21.30
2018-06-18T19:55:23.313Z,21.20
2018-06-18T19:57:51.854Z,21.10
2018-06-18T20:00:21.315Z,21.20
2018-06-18T20:05:17.984Z,21.00
2018-06-18T20:10:17.826Z,20.90
2018-06-18T20:12:46.042Z,20.80
2018-06-18T20:15:15.112Z,20.70
2018-06-18T20:17:44.355Z,20.50
2018-06-18T20:20:12.890Z,20.50
2018-06-18T20:22:41.104Z,20.50
2018-06-18T20:25:09.308Z,20.40
2018-06-18T20:27:37.486Z,20.30
2018-06-18T20:30:07.760Z,20.20
2018-06-18T20:32:35.997Z,20.20
2018-06-18T20:35:06.864Z,20.10
2018-06-18T20:37:35.043Z,20.00
2018-06-18T20:40:03.345Z,20.00
2018-06-18T20:42:31.540Z,19.90
2018-06-18T20:44:59.751Z,19.90
2018-06-18T20:47:27.955Z,19.80
2018-06-18T20:49:56.151Z,19.90
2018-06-18T20:52:24.605Z,19.90
2018-06-18T20:54:53.203Z,19.80
2018-06-18T20:57:21.637Z,19.70
2018-06-18T20:59:50.084Z,19.70
2018-06-18T21:04:46.473Z,19.60
2018-06-18T21:07:14.675Z,19.70
2018-06-18T21:09:42.999Z,19.60
2018-06-18T21:12:11.202Z,19.60
2018-06-18T21:14:39.444Z,19.50
2018-06-18T21:17:07.659Z,19.50
2018-06-18T21:19:35.871Z,19.50
2018-06-18T21:22:04.277Z,19.40
2018-06-18T21:27:00.389Z,19.50
2018-06-18T21:29:28.583Z,19.60
2018-06-18T21:31:56.801Z,19.50
2018-06-18T21:34:25.004Z,19.50
2018-06-18T21:36:53.232Z,19.40
2018-06-18T21:39:21.432Z,19.40
2018-06-18T21:41:49.626Z,19.20
2018-06-18T21:44:30.143Z,19.20
2018-06-18T21:46:58.329Z,19.10
2018-06-18T21:49:26.550Z,19.10
2018-06-18T21:51:54.732Z,19.00
2018-06-18T21:54:23.060Z,18.90
2018-06-18T21:56:51.234Z,18.90
2018-06-18T21:59:19.462Z,18.90
2018-06-18T22:01:47.659Z,18.80
2018-06-18T22:04:16.824Z,18.70
2018-06-18T22:06:45.223Z,18.60
2018-06-18T22:09:17.387Z,18.70
2018-06-18T22:11:54.883Z,18.70
2018-06-18T22:16:51.912Z,18.30
2018-06-18T22:19:20.156Z,18.60
2018-06-18T22:21:48.552Z,18.60
2018-06-18T22:24:16.764Z,18.60
2018-06-18T22:29:13.917Z,18.50
2018-06-18T22:31:42.115Z,18.60
2018-06-18T22:39:10.723Z,18.60
2018-06-18T22:44:07.707Z,18.60
2018-06-18T22:46:36.245Z,18.60
2018-06-18T22:49:04.549Z,18.60
2018-06-18T22:51:32.757Z,18.60
2018-06-18T22:54:00.980Z,18.50
2018-06-18T22:56:29.148Z,18.50
2018-06-18T22:58:57.342Z,18.50
2018-06-18T23:03:53.499Z,18.40
2018-06-18T23:06:21.670Z,18.40
2018-06-18T23:08:49.858Z,18.20
2018-06-18T23:11:18.062Z,18.30
2018-06-18T23:13:46.271Z,18.30
2018-06-18T23:16:14.466Z,18.20
2018-06-18T23:18:42.670Z,18.00
2018-06-18T23:21:10.890Z,17.90
2018-06-18T23:23:39.103Z,17.70
2018-06-18T23:26:07.315Z,17.70
2018-06-18T23:28:40.160Z,17.60
2018-06-18T23:31:08.343Z,17.60
2018-06-18T23:33:36.558Z,17.70
2018-06-18T23:36:04.774Z,17.70
2018-06-18T23:38:33.702Z,17.70
2018-06-18T23:41:01.971Z,17.70
2018-06-18T23:43:30.169Z,17.70
2018-06-18T23:45:58.863Z,17.80
2018-06-18T23:48:27.060Z,17.90
2018-06-18T23:53:23.236Z,17.90
2018-06-18T23:55:51.475Z,17.90
2018-06-18T23:58:19.768Z,18.00
